sensor_id;sensor_type;location;lat;lon;timestamp;temperature;humidity
19214;DHT22;9741;51.020;5.304;2022-10-03T00:00:09;9.20;61.80
19214;DHT22;9741;51.020;5.304;2022-10-03T00:03:09;9.10;61.70
19214;DHT22;9741;51.020;5.304;2022-10-03T00:06:05;9.10;61.80
19214;DHT22;9741;51.020;5.304;2022-10-03T00:08:59;9.10;61.80
19214;DHT22;9741;51.020;5.304;2022-10-03T00:11:38;9.10;61.80
19214;DHT22;9741;51.020;5.304;2022-10-03T00:14:16;9.00;61.80
19214;DHT22;9741;51.020;5.304;2022-10-03T00:16:49;9.00;61.80
19214;DHT22;9741;51.020;5.304;2022-10-03T00:19:26;9.00;61.80
19214;DHT22;9741;51.020;5.304;2022-10-03T00:22:10;9.00;61.80
19214;DHT22;9741;51.020;5.304;2022-10-03T00:24:48;9.00;61.90
19214;DHT22;9741;51.020;5.304;2022-10-03T00:27:26;8.90;61.80
19214;DHT22;9741;51.020;5.304;2022-10-03T00:30:04;8.90;61.80
19214;DHT22;9741;51.020;5.304;2022-10-03T00:32:45;8.90;61.80
19214;DHT22;9741;51.020;5.304;2022-10-03T00:35:26;8.90;61.80
19214;DHT22;9741;51.020;5.304;2022-10-03T00:38:11;8.90;61.80
19214;DHT22;9741;51.020;5.304;2022-10-03T00:41:22;8.90;61.80
19214;DHT22;9741;51.020;5.304;2022-10-03T00:44:12;8.90;61.80
19214;DHT22;9741;51.020;5.304;2022-10-03T00:50:17;8.80;61.80
19214;DHT22;9741;51.020;5.304;2022-10-03T00:55:52;8.80;61.90
19214;DHT22;9741;51.020;5.304;2022-10-03T00:58:32;8.80;61.90
19214;DHT22;9741;51.020;5.304;2022-10-03T01:01:22;8.80;61.90
19214;DHT22;9741;51.020;5.304;2022-10-03T01:03:58;8.70;61.80
19214;DHT22;9741;51.020;5.304;2022-10-03T01:06:36;8.70;61.80
19214;DHT22;9741;51.020;5.304;2022-10-03T01:09:18;8.70;61.90
19214;DHT22;9741;51.020;5.304;2022-10-03T01:11:56;8.70;61.90
19214;DHT22;9741;51.020;5.304;2022-10-03T01:14:42;8.70;61.90
19214;DHT22;9741;51.020;5.304;2022-10-03T01:17:20;8.70;61.90
19214;DHT22;9741;51.020;5.304;2022-10-03T01:20:13;8.70;62.00
19214;DHT22;9741;51.020;5.304;2022-10-03T01:23:10;8.60;61.80
19214;DHT22;9741;51.020;5.304;2022-10-03T01:25:49;8.70;62.00
19214;DHT22;9741;51.020;5.304;2022-10-03T01:28:41;8.60;61.80
19214;DHT22;9741;51.020;5.304;2022-10-03T01:31:32;8.60;61.90
19214;DHT22;9741;51.020;5.304;2022-10-03T01:34:09;8.50;61.80
19214;DHT22;9741;51.020;5.304;2022-10-03T01:36:42;8.50;61.80
19214;DHT22;9741;51.020;5.304;2022-10-03T01:39:18;8.40;61.80
19214;DHT22;9741;51.020;5.304;2022-10-03T01:41:53;8.50;61.90
19214;DHT22;9741;51.020;5.304;2022-10-03T01:44:29;8.40;61.80
19214;DHT22;9741;51.020;5.304;2022-10-03T01:47:07;8.40;61.80
19214;DHT22;9741;51.020;5.304;2022-10-03T01:49:45;8.40;61.80
19214;DHT22;9741;51.020;5.304;2022-10-03T01:52:19;8.40;61.80
19214;DHT22;9741;51.020;5.304;2022-10-03T01:54:55;8.40;61.80
19214;DHT22;9741;51.020;5.304;2022-10-03T01:57:32;8.30;61.80
19214;DHT22;9741;51.020;5.304;2022-10-03T02:00:07;8.30;61.80
19214;DHT22;9741;51.020;5.304;2022-10-03T02:02:41;8.30;61.80
19214;DHT22;9741;51.020;5.304;2022-10-03T02:05:16;8.30;61.80
19214;DHT22;9741;51.020;5.304;2022-10-03T02:07:53;8.30;61.80
19214;DHT22;9741;51.020;5.304;2022-10-03T02:10:28;8.30;61.80
19214;DHT22;9741;51.020;5.304;2022-10-03T02:13:05;8.20;61.70
19214;DHT22;9741;51.020;5.304;2022-10-03T02:15:49;8.20;61.70
19214;DHT22;9741;51.020;5.304;2022-10-03T02:18:26;8.20;61.80
19214;DHT22;9741;51.020;5.304;2022-10-03T02:21:05;8.20;61.80
19214;DHT22;9741;51.020;5.304;2022-10-03T02:23:40;8.20;61.90
19214;DHT22;9741;51.020;5.304;2022-10-03T02:29:29;8.20;61.80
19214;DHT22;9741;51.020;5.304;2022-10-03T02:32:20;8.10;61.70
19214;DHT22;9741;51.020;5.304;2022-10-03T02:35:08;8.10;61.80
19214;DHT22;9741;51.020;5.304;2022-10-03T02:37:53;8.10;61.80
19214;DHT22;9741;51.020;5.304;2022-10-03T02:43:48;8.00;62.30
19214;DHT22;9741;51.020;5.304;2022-10-03T02:49:43;8.00;61.80
19214;DHT22;9741;51.020;5.304;2022-10-03T02:52:34;8.00;61.90
19214;DHT22;9741;51.020;5.304;2022-10-03T02:55:32;8.00;61.90
19214;DHT22;9741;51.020;5.304;2022-10-03T03:08:08;7.90;61.90
19214;DHT22;9741;51.020;5.304;2022-10-03T03:10:57;7.90;61.90
19214;DHT22;9741;51.020;5.304;2022-10-03T03:14:07;7.90;61.90
19214;DHT22;9741;51.020;5.304;2022-10-03T03:16:53;7.90;61.90
19214;DHT22;9741;51.020;5.304;2022-10-03T03:19:40;7.90;61.90
19214;DHT22;9741;51.020;5.304;2022-10-03T03:22:18;7.90;61.90
19214;DHT22;9741;51.020;5.304;2022-10-03T03:25:16;7.90;61.90
19214;DHT22;9741;51.020;5.304;2022-10-03T03:27:54;7.90;61.90
19214;DHT22;9741;51.020;5.304;2022-10-03T03:30:32;7.90;61.90
19214;DHT22;9741;51.020;5.304;2022-10-03T03:33:11;7.90;61.90
19214;DHT22;9741;51.020;5.304;2022-10-03T03:35:49;7.90;61.90
19214;DHT22;9741;51.020;5.304;2022-10-03T03:38:27;7.90;61.90
19214;DHT22;9741;51.020;5.304;2022-10-03T03:41:16;7.90;61.90
19214;DHT22;9741;51.020;5.304;2022-10-03T03:44:05;7.90;61.90
19214;DHT22;9741;51.020;5.304;2022-10-03T03:46:44;7.90;61.90
19214;DHT22;9741;51.020;5.304;2022-10-03T03:49:37;7.90;61.90
19214;DHT22;9741;51.020;5.304;2022-10-03T03:52:26;7.90;61.90
19214;DHT22;9741;51.020;5.304;2022-10-03T03:55:21;7.90;61.90
19214;DHT22;9741;51.020;5.304;2022-10-03T03:58:12;7.80;61.80
19214;DHT22;9741;51.020;5.304;2022-10-03T04:01:25;7.80;61.80
19214;DHT22;9741;51.020;5.304;2022-10-03T04:04:04;7.80;61.90
19214;DHT22;9741;51.020;5.304;2022-10-03T04:06:49;7.80;61.90
19214;DHT22;9741;51.020;5.304;2022-10-03T04:09:38;7.80;61.90
19214;DHT22;9741;51.020;5.304;2022-10-03T04:12:17;7.80;62.00
19214;DHT22;9741;51.020;5.304;2022-10-03T04:15:11;7.80;62.00
19214;DHT22;9741;51.020;5.304;2022-10-03T04:18:10;7.80;62.00
19214;DHT22;9741;51.020;5.304;2022-10-03T04:21:24;7.80;62.00
19214;DHT22;9741;51.020;5.304;2022-10-03T04:24:14;7.90;62.10
19214;DHT22;9741;51.020;5.304;2022-10-03T04:26:59;7.90;62.10
19214;DHT22;9741;51.020;5.304;2022-10-03T04:29:42;7.90;62.10
19214;DHT22;9741;51.020;5.304;2022-10-03T04:32:42;7.90;62.00
19214;DHT22;9741;51.020;5.304;2022-10-03T04:35:40;7.90;62.00
19214;DHT22;9741;51.020;5.304;2022-10-03T04:38:19;7.90;62.00
19214;DHT22;9741;51.020;5.304;2022-10-03T04:40:56;7.90;62.00
19214;DHT22;9741;51.020;5.304;2022-10-03T04:43:34;8.00;62.10
19214;DHT22;9741;51.020;5.304;2022-10-03T04:46:24;8.00;62.10
19214;DHT22;9741;51.020;5.304;2022-10-03T04:49:02;8.00;62.10
19214;DHT22;9741;51.020;5.304;2022-10-03T04:51:42;8.00;62.10
19214;DHT22;9741;51.020;5.304;2022-10-03T04:54:18;8.00;62.10
19214;DHT22;9741;51.020;5.304;2022-10-03T04:56:54;8.00;62.00
19214;DHT22;9741;51.020;5.304;2022-10-03T04:59:37;8.00;62.00
19214;DHT22;9741;51.020;5.304;2022-10-03T05:02:16;8.00;62.10
19214;DHT22;9741;51.020;5.304;2022-10-03T05:04:58;8.00;62.10
19214;DHT22;9741;51.020;5.304;2022-10-03T05:07:31;8.10;62.10
19214;DHT22;9741;51.020;5.304;2022-10-03T05:10:23;8.10;62.10
19214;DHT22;9741;51.020;5.304;2022-10-03T05:12:59;8.10;62.10
19214;DHT22;9741;51.020;5.304;2022-10-03T05:15:31;8.00;62.10
19214;DHT22;9741;51.020;5.304;2022-10-03T05:18:04;8.10;62.20
19214;DHT22;9741;51.020;5.304;2022-10-03T05:20:45;8.00;62.10
19214;DHT22;9741;51.020;5.304;2022-10-03T05:23:22;8.00;62.10
19214;DHT22;9741;51.020;5.304;2022-10-03T05:25:59;8.00;62.10
19214;DHT22;9741;51.020;5.304;2022-10-03T05:28:36;8.00;62.10
19214;DHT22;9741;51.020;5.304;2022-10-03T05:34:05;8.10;62.20
19214;DHT22;9741;51.020;5.304;2022-10-03T05:36:57;8.10;62.20
19214;DHT22;9741;51.020;5.304;2022-10-03T05:39:35;8.10;62.20
19214;DHT22;9741;51.020;5.304;2022-10-03T05:42:18;8.00;62.10
19214;DHT22;9741;51.020;5.304;2022-10-03T05:45:02;8.10;62.20
19214;DHT22;9741;51.020;5.304;2022-10-03T05:47:35;8.00;62.10
19214;DHT22;9741;51.020;5.304;2022-10-03T05:56:48;8.00;62.10
19214;DHT22;9741;51.020;5.304;2022-10-03T05:59:43;8.00;62.70
19214;DHT22;9741;51.020;5.304;2022-10-03T06:02:44;8.10;62.30
19214;DHT22;9741;51.020;5.304;2022-10-03T06:05:26;8.10;62.30
19214;DHT22;9741;51.020;5.304;2022-10-03T06:08:43;8.10;62.30
19214;DHT22;9741;51.020;5.304;2022-10-03T06:11:39;8.10;62.30
19214;DHT22;9741;51.020;5.304;2022-10-03T06:14:30;8.10;62.30
19214;DHT22;9741;51.020;5.304;2022-10-03T06:17:13;8.10;62.30
19214;DHT22;9741;51.020;5.304;2022-10-03T06:19:50;8.20;62.40
19214;DHT22;9741;51.020;5.304;2022-10-03T06:23:00;8.20;62.30
19214;DHT22;9741;51.020;5.304;2022-10-03T06:29:13;8.30;62.50
19214;DHT22;9741;51.020;5.304;2022-10-03T06:32:19;8.40;62.60
19214;DHT22;9741;51.020;5.304;2022-10-03T06:38:24;8.50;62.70
19214;DHT22;9741;51.020;5.304;2022-10-03T06:44:22;8.70;62.80
19214;DHT22;9741;51.020;5.304;2022-10-03T06:47:15;8.90;62.90
19214;DHT22;9741;51.020;5.304;2022-10-03T06:50:12;9.00;63.00
19214;DHT22;9741;51.020;5.304;2022-10-03T07:02:26;9.40;63.20
19214;DHT22;9741;51.020;5.304;2022-10-03T07:08:27;9.60;63.30
19214;DHT22;9741;51.020;5.304;2022-10-03T07:11:10;9.60;63.30
19214;DHT22;9741;51.020;5.304;2022-10-03T07:13:57;9.70;63.40
19214;DHT22;9741;51.020;5.304;2022-10-03T07:16:55;9.80;63.50
19214;DHT22;9741;51.020;5.304;2022-10-03T07:19:59;9.90;63.50
19214;DHT22;9741;51.020;5.304;2022-10-03T07:26:32;10.10;62.70
19214;DHT22;9741;51.020;5.304;2022-10-03T07:29:12;10.20;62.80
19214;DHT22;9741;51.020;5.304;2022-10-03T07:44:38;10.90;63.40
19214;DHT22;9741;51.020;5.304;2022-10-03T07:50:56;11.40;63.80
19214;DHT22;9741;51.020;5.304;2022-10-03T07:54:02;11.70;63.70
19214;DHT22;9741;51.020;5.304;2022-10-03T08:00:12;12.30;64.50
19214;DHT22;9741;51.020;5.304;2022-10-03T08:06:17;12.80;63.90
19214;DHT22;9741;51.020;5.304;2022-10-03T08:09:17;13.10;63.80
19214;DHT22;9741;51.020;5.304;2022-10-03T08:15:24;13.30;63.50
19214;DHT22;9741;51.020;5.304;2022-10-03T08:21:15;13.40;63.40
19214;DHT22;9741;51.020;5.304;2022-10-03T08:24:22;13.40;63.30
19214;DHT22;9741;51.020;5.304;2022-10-03T08:27:25;13.50;63.40
19214;DHT22;9741;51.020;5.304;2022-10-03T08:30:11;13.50;63.40
19214;DHT22;9741;51.020;5.304;2022-10-03T08:33:19;13.50;63.40
19214;DHT22;9741;51.020;5.304;2022-10-03T08:39:05;13.60;63.40
19214;DHT22;9741;51.020;5.304;2022-10-03T08:51:22;14.00;63.60
19214;DHT22;9741;51.020;5.304;2022-10-03T09:00:16;14.40;63.90
19214;DHT22;9741;51.020;5.304;2022-10-03T09:09:23;15.20;63.10
19214;DHT22;9741;51.020;5.304;2022-10-03T09:12:24;15.40;63.00
19214;DHT22;9741;51.020;5.304;2022-10-03T09:18:11;15.40;62.80
19214;DHT22;9741;51.020;5.304;2022-10-03T09:21:16;15.50;62.90
19214;DHT22;9741;51.020;5.304;2022-10-03T09:24:24;15.50;62.80
19214;DHT22;9741;51.020;5.304;2022-10-03T09:30:23;15.50;62.90
19214;DHT22;9741;51.020;5.304;2022-10-03T09:41:52;15.60;62.90
19214;DHT22;9741;51.020;5.304;2022-10-03T09:44:40;15.70;63.00
19214;DHT22;9741;51.020;5.304;2022-10-03T09:47:32;15.70;62.90
19214;DHT22;9741;51.020;5.304;2022-10-03T09:50:31;15.70;62.80
19214;DHT22;9741;51.020;5.304;2022-10-03T09:53:33;15.80;62.80
19214;DHT22;9741;51.020;5.304;2022-10-03T09:59:32;15.90;62.80
19214;DHT22;9741;51.020;5.304;2022-10-03T10:02:22;16.00;62.80
19214;DHT22;9741;51.020;5.304;2022-10-03T10:05:07;16.00;62.70
19214;DHT22;9741;51.020;5.304;2022-10-03T10:08:09;16.10;62.70
19214;DHT22;9741;51.020;5.304;2022-10-03T10:10:53;16.20;62.60
19214;DHT22;9741;51.020;5.304;2022-10-03T10:14:00;16.30;62.60
19214;DHT22;9741;51.020;5.304;2022-10-03T10:19:38;16.60;62.60
19214;DHT22;9741;51.020;5.304;2022-10-03T10:22:49;16.80;62.50
19214;DHT22;9741;51.020;5.304;2022-10-03T10:25:34;17.10;62.30
19214;DHT22;9741;51.020;5.304;2022-10-03T10:28:41;17.40;62.10
19214;DHT22;9741;51.020;5.304;2022-10-03T10:38:12;18.20;61.60
19214;DHT22;9741;51.020;5.304;2022-10-03T10:47:17;18.60;60.60
19214;DHT22;9741;51.020;5.304;2022-10-03T11:05:50;19.70;60.00
19214;DHT22;9741;51.020;5.304;2022-10-03T11:08:54;19.90;59.70
19214;DHT22;9741;51.020;5.304;2022-10-03T11:15:21;20.10;58.70
19214;DHT22;9741;51.020;5.304;2022-10-03T11:21:43;20.30;58.10
19214;DHT22;9741;51.020;5.304;2022-10-03T11:27:56;20.30;57.40
19214;DHT22;9741;51.020;5.304;2022-10-03T11:30:56;20.40;57.40
19214;DHT22;9741;51.020;5.304;2022-10-03T11:43:30;20.80;56.30
19214;DHT22;9741;51.020;5.304;2022-10-03T11:46:24;20.90;55.90
19214;DHT22;9741;51.020;5.304;2022-10-03T11:49:06;21.00;55.60
19214;DHT22;9741;51.020;5.304;2022-10-03T11:51:44;21.00;55.50
19214;DHT22;9741;51.020;5.304;2022-10-03T11:54:20;21.00;55.20
19214;DHT22;9741;51.020;5.304;2022-10-03T11:56:55;21.00;55.00
19214;DHT22;9741;51.020;5.304;2022-10-03T11:59:39;21.00;54.90
19214;DHT22;9741;51.020;5.304;2022-10-03T12:02:18;21.00;54.70
19214;DHT22;9741;51.020;5.304;2022-10-03T12:04:56;21.00;54.50
19214;DHT22;9741;51.020;5.304;2022-10-03T12:07:41;21.00;54.50
19214;DHT22;9741;51.020;5.304;2022-10-03T12:10:44;21.00;54.40
19214;DHT22;9741;51.020;5.304;2022-10-03T12:13:19;21.10;54.50
19214;DHT22;9741;51.020;5.304;2022-10-03T12:15:52;21.00;54.30
19214;DHT22;9741;51.020;5.304;2022-10-03T12:18:25;21.00;54.20
19214;DHT22;9741;51.020;5.304;2022-10-03T12:21:09;21.00;53.90
19214;DHT22;9741;51.020;5.304;2022-10-03T12:23:55;21.00;53.90
19214;DHT22;9741;51.020;5.304;2022-10-03T12:26:32;21.00;53.70
19214;DHT22;9741;51.020;5.304;2022-10-03T12:29:04;21.00;53.80
19214;DHT22;9741;51.020;5.304;2022-10-03T12:31:40;21.00;53.60
19214;DHT22;9741;51.020;5.304;2022-10-03T12:34:21;21.00;53.60
19214;DHT22;9741;51.020;5.304;2022-10-03T12:37:15;20.90;53.30
19214;DHT22;9741;51.020;5.304;2022-10-03T12:39:50;20.90;53.30
19214;DHT22;9741;51.020;5.304;2022-10-03T12:42:28;20.80;53.20
19214;DHT22;9741;51.020;5.304;2022-10-03T12:45:01;20.70;53.20
19214;DHT22;9741;51.020;5.304;2022-10-03T12:47:42;20.70;53.30
19214;DHT22;9741;51.020;5.304;2022-10-03T12:53:33;20.70;53.10
19214;DHT22;9741;51.020;5.304;2022-10-03T12:56:14;20.70;53.10
19214;DHT22;9741;51.020;5.304;2022-10-03T12:59:07;20.80;53.10
19214;DHT22;9741;51.020;5.304;2022-10-03T13:01:51;20.80;52.80
19214;DHT22;9741;51.020;5.304;2022-10-03T13:04:32;20.90;52.70
19214;DHT22;9741;51.020;5.304;2022-10-03T13:07:18;20.90;52.50
19214;DHT22;9741;51.020;5.304;2022-10-03T13:10:08;20.90;52.30
19214;DHT22;9741;51.020;5.304;2022-10-03T13:12:44;20.90;52.10
19214;DHT22;9741;51.020;5.304;2022-10-03T13:15:41;20.90;52.40
19214;DHT22;9741;51.020;5.304;2022-10-03T13:18:22;20.90;52.30
19214;DHT22;9741;51.020;5.304;2022-10-03T13:20:59;20.90;52.30
19214;DHT22;9741;51.020;5.304;2022-10-03T13:23:40;21.00;52.60
19214;DHT22;9741;51.020;5.304;2022-10-03T13:26:13;21.10;52.60
19214;DHT22;9741;51.020;5.304;2022-10-03T13:29:07;21.20;52.30
19214;DHT22;9741;51.020;5.304;2022-10-03T13:31:49;21.10;51.80
19214;DHT22;9741;51.020;5.304;2022-10-03T13:34:22;21.00;51.70
19214;DHT22;9741;51.020;5.304;2022-10-03T13:36:54;21.00;51.90
19214;DHT22;9741;51.020;5.304;2022-10-03T13:39:24;20.90;52.00
19214;DHT22;9741;51.020;5.304;2022-10-03T13:42:02;20.80;52.00
19214;DHT22;9741;51.020;5.304;2022-10-03T13:44:36;20.80;51.90
19214;DHT22;9741;51.020;5.304;2022-10-03T13:47:16;20.70;51.80
19214;DHT22;9741;51.020;5.304;2022-10-03T13:49:51;20.70;51.80
19214;DHT22;9741;51.020;5.304;2022-10-03T13:52:24;20.60;52.00
19214;DHT22;9741;51.020;5.304;2022-10-03T13:55:25;20.60;52.00
19214;DHT22;9741;51.020;5.304;2022-10-03T13:58:22;20.60;52.10
19214;DHT22;9741;51.020;5.304;2022-10-03T14:01:15;20.60;52.00
19214;DHT22;9741;51.020;5.304;2022-10-03T14:04:04;20.70;51.80
19214;DHT22;9741;51.020;5.304;2022-10-03T14:06:36;20.70;51.70
19214;DHT22;9741;51.020;5.304;2022-10-03T14:09:36;20.70;51.50
19214;DHT22;9741;51.020;5.304;2022-10-03T14:12:13;20.90;51.60
19214;DHT22;9741;51.020;5.304;2022-10-03T14:15:13;20.90;51.60
19214;DHT22;9741;51.020;5.304;2022-10-03T14:17:49;21.00;51.50
19214;DHT22;9741;51.020;5.304;2022-10-03T14:20:27;21.00;51.40
19214;DHT22;9741;51.020;5.304;2022-10-03T14:23:18;21.00;51.30
19214;DHT22;9741;51.020;5.304;2022-10-03T14:25:56;21.00;51.20
19214;DHT22;9741;51.020;5.304;2022-10-03T14:28:29;21.00;51.10
19214;DHT22;9741;51.020;5.304;2022-10-03T14:31:08;21.10;51.10
19214;DHT22;9741;51.020;5.304;2022-10-03T14:33:44;21.20;51.10
19214;DHT22;9741;51.020;5.304;2022-10-03T14:36:26;21.20;51.10
19214;DHT22;9741;51.020;5.304;2022-10-03T14:39:06;21.20;51.00
19214;DHT22;9741;51.020;5.304;2022-10-03T14:41:58;21.20;50.90
19214;DHT22;9741;51.020;5.304;2022-10-03T14:44:37;21.20;50.70
19214;DHT22;9741;51.020;5.304;2022-10-03T14:47:08;21.10;50.70
19214;DHT22;9741;51.020;5.304;2022-10-03T14:49:38;21.10;50.80
19214;DHT22;9741;51.020;5.304;2022-10-03T14:52:12;21.10;50.80
19214;DHT22;9741;51.020;5.304;2022-10-03T14:54:43;21.10;50.80
19214;DHT22;9741;51.020;5.304;2022-10-03T14:57:24;21.00;50.70
19214;DHT22;9741;51.020;5.304;2022-10-03T14:59:53;21.00;50.80
19214;DHT22;9741;51.020;5.304;2022-10-03T15:02:27;21.00;50.80
19214;DHT22;9741;51.020;5.304;2022-10-03T15:05:01;21.00;50.80
19214;DHT22;9741;51.020;5.304;2022-10-03T15:07:36;20.90;50.70
19214;DHT22;9741;51.020;5.304;2022-10-03T15:10:08;20.90;50.80
19214;DHT22;9741;51.020;5.304;2022-10-03T15:12:39;20.80;50.70
19214;DHT22;9741;51.020;5.304;2022-10-03T15:15:10;20.70;50.70
19214;DHT22;9741;51.020;5.304;2022-10-03T15:17:44;20.70;50.70
19214;DHT22;9741;51.020;5.304;2022-10-03T15:20:16;20.60;50.70
19214;DHT22;9741;51.020;5.304;2022-10-03T15:22:49;20.60;50.70
19214;DHT22;9741;51.020;5.304;2022-10-03T15:25:22;20.60;50.70
19214;DHT22;9741;51.020;5.304;2022-10-03T15:27:53;20.50;50.60
19214;DHT22;9741;51.020;5.304;2022-10-03T15:30:24;20.40;50.60
19214;DHT22;9741;51.020;5.304;2022-10-03T15:32:55;20.40;50.70
19214;DHT22;9741;51.020;5.304;2022-10-03T15:35:30;20.40;50.70
19214;DHT22;9741;51.020;5.304;2022-10-03T15:38:08;20.30;50.70
19214;DHT22;9741;51.020;5.304;2022-10-03T15:40:43;20.30;50.80
19214;DHT22;9741;51.020;5.304;2022-10-03T15:43:30;20.30;50.80
19214;DHT22;9741;51.020;5.304;2022-10-03T15:46:00;20.20;50.70
19214;DHT22;9741;51.020;5.304;2022-10-03T15:48:28;20.10;50.70
19214;DHT22;9741;51.020;5.304;2022-10-03T15:50:57;20.00;50.70
19214;DHT22;9741;51.020;5.304;2022-10-03T15:53:29;20.10;50.80
19214;DHT22;9741;51.020;5.304;2022-10-03T15:56:08;20.00;50.80
19214;DHT22;9741;51.020;5.304;2022-10-03T15:58:41;20.00;50.80
19214;DHT22;9741;51.020;5.304;2022-10-03T16:01:15;19.90;50.80
19214;DHT22;9741;51.020;5.304;2022-10-03T16:03:45;19.90;50.90
19214;DHT22;9741;51.020;5.304;2022-10-03T16:06:18;19.80;50.90
19214;DHT22;9741;51.020;5.304;2022-10-03T16:08:56;19.80;51.00
19214;DHT22;9741;51.020;5.304;2022-10-03T16:11:28;19.70;51.00
19214;DHT22;9741;51.020;5.304;2022-10-03T16:14:10;19.60;50.90
19214;DHT22;9741;51.020;5.304;2022-10-03T16:16:40;19.60;50.90
19214;DHT22;9741;51.020;5.304;2022-10-03T16:19:30;19.50;51.10
19214;DHT22;9741;51.020;5.304;2022-10-03T16:22:12;19.40;51.10
19214;DHT22;9741;51.020;5.304;2022-10-03T16:24:47;19.40;51.80
19214;DHT22;9741;51.020;5.304;2022-10-03T16:27:17;19.30;51.30
19214;DHT22;9741;51.020;5.304;2022-10-03T16:29:52;19.20;51.30
19214;DHT22;9741;51.020;5.304;2022-10-03T16:32:22;19.00;51.40
19214;DHT22;9741;51.020;5.304;2022-10-03T16:34:51;18.90;51.50
19214;DHT22;9741;51.020;5.304;2022-10-03T16:37:21;18.80;51.60
19214;DHT22;9741;51.020;5.304;2022-10-03T16:39:56;18.70;51.70
19214;DHT22;9741;51.020;5.304;2022-10-03T16:42:37;18.60;51.90
19214;DHT22;9741;51.020;5.304;2022-10-03T16:45:19;18.40;52.00
19214;DHT22;9741;51.020;5.304;2022-10-03T16:47:47;18.30;52.10
19214;DHT22;9741;51.020;5.304;2022-10-03T16:50:40;18.20;52.30
19214;DHT22;9741;51.020;5.304;2022-10-03T16:53:08;18.10;52.40
19214;DHT22;9741;51.020;5.304;2022-10-03T16:55:44;17.90;52.50
19214;DHT22;9741;51.020;5.304;2022-10-03T16:58:17;17.80;52.60
19214;DHT22;9741;51.020;5.304;2022-10-03T17:00:52;17.70;52.80
19214;DHT22;9741;51.020;5.304;2022-10-03T17:03:23;17.50;52.90
19214;DHT22;9741;51.020;5.304;2022-10-03T17:05:54;17.40;53.10
19214;DHT22;9741;51.020;5.304;2022-10-03T17:08:28;17.30;53.30
19214;DHT22;9741;51.020;5.304;2022-10-03T17:11:03;17.20;53.50
19214;DHT22;9741;51.020;5.304;2022-10-03T17:13:38;17.10;53.70
19214;DHT22;9741;51.020;5.304;2022-10-03T17:16:12;17.00;53.90
19214;DHT22;9741;51.020;5.304;2022-10-03T17:18:43;17.00;54.10
19214;DHT22;9741;51.020;5.304;2022-10-03T17:21:19;16.90;54.10
19214;DHT22;9741;51.020;5.304;2022-10-03T17:23:57;16.80;54.20
19214;DHT22;9741;51.020;5.304;2022-10-03T17:26:32;16.80;54.30
19214;DHT22;9741;51.020;5.304;2022-10-03T17:29:09;16.60;54.40
19214;DHT22;9741;51.020;5.304;2022-10-03T17:31:43;16.60;54.50
19214;DHT22;9741;51.020;5.304;2022-10-03T17:34:15;16.60;54.70
19214;DHT22;9741;51.020;5.304;2022-10-03T17:40:20;16.40;54.80
19214;DHT22;9741;51.020;5.304;2022-10-03T17:42:53;16.30;54.80
19214;DHT22;9741;51.020;5.304;2022-10-03T17:45:31;16.30;55.00
19214;DHT22;9741;51.020;5.304;2022-10-03T17:48:07;16.20;55.10
19214;DHT22;9741;51.020;5.304;2022-10-03T17:50:44;16.10;55.20
19214;DHT22;9741;51.020;5.304;2022-10-03T17:53:19;16.00;55.30
19214;DHT22;9741;51.020;5.304;2022-10-03T17:55:51;15.90;55.40
19214;DHT22;9741;51.020;5.304;2022-10-03T17:58:22;15.90;55.60
19214;DHT22;9741;51.020;5.304;2022-10-03T18:01:04;15.80;55.80
19214;DHT22;9741;51.020;5.304;2022-10-03T18:03:36;15.80;55.90
19214;DHT22;9741;51.020;5.304;2022-10-03T18:06:34;15.80;56.00
19214;DHT22;9741;51.020;5.304;2022-10-03T18:09:08;15.70;56.20
19214;DHT22;9741;51.020;5.304;2022-10-03T18:11:37;15.70;56.20
19214;DHT22;9741;51.020;5.304;2022-10-03T18:14:14;15.60;56.30
19214;DHT22;9741;51.020;5.304;2022-10-03T18:16:45;15.60;56.40
19214;DHT22;9741;51.020;5.304;2022-10-03T18:19:24;15.50;56.50
19214;DHT22;9741;51.020;5.304;2022-10-03T18:22:10;15.50;56.60
19214;DHT22;9741;51.020;5.304;2022-10-03T18:24:49;15.50;56.80
19214;DHT22;9741;51.020;5.304;2022-10-03T18:30:31;15.40;57.00
19214;DHT22;9741;51.020;5.304;2022-10-03T18:33:00;15.30;57.00
19214;DHT22;9741;51.020;5.304;2022-10-03T18:35:33;15.30;57.10
19214;DHT22;9741;51.020;5.304;2022-10-03T18:38:06;15.30;57.20
19214;DHT22;9741;51.020;5.304;2022-10-03T18:40:41;15.20;57.20
19214;DHT22;9741;51.020;5.304;2022-10-03T18:43:33;15.20;57.30
19214;DHT22;9741;51.020;5.304;2022-10-03T18:46:09;15.10;57.30
19214;DHT22;9741;51.020;5.304;2022-10-03T18:48:50;15.00;57.40
19214;DHT22;9741;51.020;5.304;2022-10-03T18:51:31;15.00;57.50
19214;DHT22;9741;51.020;5.304;2022-10-03T18:54:03;14.90;57.50
19214;DHT22;9741;51.020;5.304;2022-10-03T18:56:33;14.80;57.50
19214;DHT22;9741;51.020;5.304;2022-10-03T18:59:07;14.70;57.60
19214;DHT22;9741;51.020;5.304;2022-10-03T19:01:43;14.60;57.60
19214;DHT22;9741;51.020;5.304;2022-10-03T19:04:20;14.50;57.60
19214;DHT22;9741;51.020;5.304;2022-10-03T19:06:51;14.40;57.60
19214;DHT22;9741;51.020;5.304;2022-10-03T19:09:24;14.30;57.70
19214;DHT22;9741;51.020;5.304;2022-10-03T19:11:55;14.30;57.90
19214;DHT22;9741;51.020;5.304;2022-10-03T19:14:30;14.20;57.90
19214;DHT22;9741;51.020;5.304;2022-10-03T19:17:15;14.10;58.00
19214;DHT22;9741;51.020;5.304;2022-10-03T19:19:50;14.00;57.90
19214;DHT22;9741;51.020;5.304;2022-10-03T19:22:24;14.00;58.00
19214;DHT22;9741;51.020;5.304;2022-10-03T19:24:53;13.90;58.00
19214;DHT22;9741;51.020;5.304;2022-10-03T19:27:32;13.80;58.00
19214;DHT22;9741;51.020;5.304;2022-10-03T19:30:08;13.80;58.10
19214;DHT22;9741;51.020;5.304;2022-10-03T19:32:48;13.80;58.30
19214;DHT22;9741;51.020;5.304;2022-10-03T19:35:20;13.80;58.40
19214;DHT22;9741;51.020;5.304;2022-10-03T19:37:51;13.70;58.40
19214;DHT22;9741;51.020;5.304;2022-10-03T19:40:38;13.70;58.60
19214;DHT22;9741;51.020;5.304;2022-10-03T19:43:33;13.70;58.70
19214;DHT22;9741;51.020;5.304;2022-10-03T19:46:19;13.70;58.70
19214;DHT22;9741;51.020;5.304;2022-10-03T19:51:48;13.70;58.90
19214;DHT22;9741;51.020;5.304;2022-10-03T19:54:31;13.60;58.90
19214;DHT22;9741;51.020;5.304;2022-10-03T19:57:01;13.60;59.10
19214;DHT22;9741;51.020;5.304;2022-10-03T19:59:36;13.60;59.10
19214;DHT22;9741;51.020;5.304;2022-10-03T20:02:10;13.60;59.20
19214;DHT22;9741;51.020;5.304;2022-10-03T20:04:40;13.60;59.30
19214;DHT22;9741;51.020;5.304;2022-10-03T20:07:15;13.60;59.30
19214;DHT22;9741;51.020;5.304;2022-10-03T20:09:55;13.60;59.40
19214;DHT22;9741;51.020;5.304;2022-10-03T20:12:29;13.60;59.40
19214;DHT22;9741;51.020;5.304;2022-10-03T20:14:59;13.60;59.50
19214;DHT22;9741;51.020;5.304;2022-10-03T20:17:29;13.60;59.60
19214;DHT22;9741;51.020;5.304;2022-10-03T20:20:03;13.60;59.70
19214;DHT22;9741;51.020;5.304;2022-10-03T20:22:34;13.60;59.80
19214;DHT22;9741;51.020;5.304;2022-10-03T20:25:05;13.60;59.90
19214;DHT22;9741;51.020;5.304;2022-10-03T20:27:36;13.60;60.00
19214;DHT22;9741;51.020;5.304;2022-10-03T20:30:25;13.60;60.10
19214;DHT22;9741;51.020;5.304;2022-10-03T20:32:55;13.60;60.10
19214;DHT22;9741;51.020;5.304;2022-10-03T20:35:27;13.60;60.20
19214;DHT22;9741;51.020;5.304;2022-10-03T20:38:01;13.60;60.30
19214;DHT22;9741;51.020;5.304;2022-10-03T20:40:33;13.60;60.20
19214;DHT22;9741;51.020;5.304;2022-10-03T20:46:02;13.60;60.30